Time;durP1;ratioP1;P1;durP2;ratioP2;P2;SDS_P1;SDS_P2;PMS_P1;PMS_P2;Temp;Humidity;BMP_temperature;BMP_pressure;BME280_temperature;BME280_humidity;BME280_pressure;Samples;Min_cycle;Max_cycle;Signal;HPM_P1;HPM_P2
2023/11/26 00:03:06;;;;;;;2.05;1.27;;;;;;;2.82;66.90;99733.41;10418924;28;20041;-63
2023/11/26 00:08:08;;;;;;;3.03;1.60;;;;;;;2.94;66.66;99738.19;10436038;28;20058;-65
2023/11/26 00:13:10;;;;;;;2.15;1.25;;;;;;;2.77;66.57;99738.72;10402802;28;20069;-63
2023/11/26 00:18:12;;;;;;;3.70;1.38;;;;;;;2.82;66.57;99744.59;10436562;28;20053;-63
2023/11/26 00:23:15;;;;;;;1.92;1.23;;;;;;;2.86;66.54;99740.16;10436188;28;20055;-63
2023/11/26 00:28:17;;;;;;;3.45;1.52;;;;;;;2.79;66.61;99743.81;10435426;28;20091;-63
2023/11/26 00:33:20;;;;;;;2.58;1.58;;;;;;;2.82;66.44;99749.75;10433796;28;21110;-63
2023/11/26 00:38:22;;;;;;;2.00;1.20;;;;;;;2.67;66.77;99752.81;10434907;28;20128;-63
2023/11/26 00:43:24;;;;;;;2.42;1.52;;;;;;;2.66;66.68;99758.03;10432725;28;20045;-63
2023/11/26 00:48:29;;;;;;;2.22;1.42;;;;;;;2.77;66.69;99758.50;10413022;28;20041;-64
2023/11/26 00:53:34;;;;;;;4.85;1.58;;;;;;;2.90;66.60;99758.09;10414380;28;20045;-63
2023/11/26 00:58:39;;;;;;;5.43;1.67;;;;;;;3.00;66.47;99761.25;10430709;28;20052;-64
2023/11/26 01:03:41;;;;;;;2.38;1.50;;;;;;;3.03;66.32;99761.13;10416188;28;20287;-63
2023/11/26 01:08:43;;;;;;;2.03;1.30;;;;;;;3.09;66.48;99762.69;10434112;28;20045;-62
2023/11/26 01:13:45;;;;;;;2.47;1.42;;;;;;;3.07;66.27;99761.91;10434136;28;20037;-62
2023/11/26 01:18:47;;;;;;;4.53;2.15;;;;;;;3.00;66.33;99762.09;10433120;28;20110;-63
2023/11/26 01:23:50;;;;;;;5.25;1.95;;;;;;;2.98;66.33;99768.19;10433580;28;20519;-62
2023/11/26 01:28:52;;;;;;;3.50;1.75;;;;;;;3.03;66.62;99767.16;10427932;28;20043;-63
2023/11/26 01:33:54;;;;;;;2.88;1.50;;;;;;;3.05;66.58;99777.41;10411017;28;20045;-63
2023/11/26 01:38:56;;;;;;;3.65;1.70;;;;;;;3.14;66.36;99786.63;10412170;28;20041;-63
2023/11/26 01:43:59;;;;;;;3.53;1.83;;;;;;;3.04;66.35;99797.28;10413462;28;20076;-62
2023/11/26 01:49:01;;;;;;;4.30;1.60;;;;;;;2.96;66.68;99800.97;10427166;28;21264;-63
2023/11/26 01:54:04;;;;;;;4.43;2.20;;;;;;;2.91;66.99;99810.59;10432492;28;20064;-62
2023/11/26 01:59:06;;;;;;;3.15;1.60;;;;;;;2.99;67.20;99819.81;10399620;28;21061;-62
2023/11/26 02:04:08;;;;;;;2.03;1.20;;;;;;;3.02;67.20;99811.13;10414817;28;20041;-62
2023/11/26 02:09:10;;;;;;;3.08;1.70;;;;;;;3.00;67.41;99798.25;10431865;28;21166;-62
2023/11/26 02:14:12;;;;;;;4.55;2.00;;;;;;;2.69;67.85;99800.06;10414887;28;20045;-62
2023/11/26 02:19:25;;;;;;;2.28;1.52;;;;;;;2.79;67.71;99805.78;10431525;28;20544;-63
2023/11/26 02:24:30;;;;;;;2.08;1.67;;;;;;;2.91;67.33;99803.69;10445274;28;20141;-62
2023/11/26 02:29:32;;;;;;;3.35;1.85;;;;;;;2.98;67.23;99794.88;10444475;28;20076;-62
2023/11/26 02:34:34;;;;;;;1.90;1.20;;;;;;;2.95;67.20;99792.38;10396742;28;20080;-62
2023/11/26 02:39:36;;;;;;;2.13;1.30;;;;;;;2.81;67.01;99794.53;10428034;28;20049;-62
2023/11/26 02:44:39;;;;;;;2.55;1.35;;;;;;;2.64;67.26;99804.50;10430286;28;20390;-62
2023/11/26 02:49:42;;;;;;;1.98;1.42;;;;;;;2.74;67.63;99802.53;10394012;28;20056;-63
2023/11/26 02:54:45;;;;;;;4.40;2.10;;;;;;;2.96;67.39;99808.72;10430598;28;20059;-62
2023/11/26 02:59:47;;;;;;;4.43;1.70;;;;;;;3.05;67.10;99811.00;10420026;28;20075;-63
2023/11/26 03:04:52;;;;;;;4.05;1.40;;;;;;;3.15;67.13;99809.84;10419635;28;20099;-62
2023/11/26 03:15:15;;;;;;;2.50;1.60;;;;;;;3.10;66.98;99803.97;10437285;28;20063;-63
2023/11/26 03:20:19;;;;;;;4.28;2.00;;;;;;;2.84;67.15;99815.13;10419230;28;20722;-63
2023/11/26 03:25:21;;;;;;;4.32;2.13;;;;;;;2.79;67.51;99816.97;10404590;28;20056;-62
2023/11/26 03:30:28;;;;;;;4.15;1.80;;;;;;;2.61;67.87;99822.69;10419784;28;20048;-63
2023/11/26 03:35:31;;;;;;;3.50;2.00;;;;;;;2.65;68.07;99831.19;10452534;28;20047;-62
2023/11/26 03:40:33;;;;;;;2.88;1.70;;;;;;;2.90;67.87;99824.41;10433811;28;20375;-63
2023/11/26 03:45:35;;;;;;;3.60;2.05;;;;;;;3.08;67.72;99826.44;10436661;28;20049;-62
2023/11/26 03:50:37;;;;;;;2.10;1.25;;;;;;;3.16;67.47;99831.34;10414662;28;20777;-63
2023/11/26 03:55:39;;;;;;;2.22;1.45;;;;;;;3.21;67.40;99829.47;10438280;28;20059;-62
2023/11/26 04:00:41;;;;;;;4.15;1.90;;;;;;;3.23;67.35;99823.38;10436694;28;20049;-62
2023/11/26 04:05:43;;;;;;;3.05;1.70;;;;;;;3.25;67.30;99825.91;10437175;28;20485;-62
2023/11/26 04:10:45;;;;;;;2.63;1.65;;;;;;;3.06;67.26;99830.78;10412438;28;20049;-62
2023/11/26 04:15:54;;;;;;;5.97;2.47;;;;;;;2.93;67.87;99820.00;10437126;28;20059;-62
2023/11/26 04:20:56;;;;;;;3.67;2.20;;;;;;;2.88;68.52;99816.72;10436857;28;20041;-62
2023/11/26 04:26:00;;;;;;;4.65;2.47;;;;;;;2.91;68.95;99805.41;10432984;28;20459;-62
2023/11/26 04:31:02;;;;;;;5.47;2.58;;;;;;;3.04;68.74;99817.09;10435031;28;20129;-62
2023/11/26 04:36:06;;;;;;;7.38;3.20;;;;;;;3.20;68.69;99820.88;10436189;28;20472;-62
2023/11/26 04:41:08;;;;;;;6.60;3.08;;;;;;;3.38;68.26;99811.66;10435586;28;20532;-63
2023/11/26 04:46:10;;;;;;;5.45;2.33;;;;;;;3.34;68.24;99830.75;10431697;28;20050;-63
2023/11/26 04:51:12;;;;;;;6.80;2.95;;;;;;;3.29;68.03;99830.09;10399952;28;20686;-62
2023/11/26 04:56:14;;;;;;;7.63;3.40;;;;;;;3.41;67.96;99838.28;10413869;28;20151;-62
2023/11/26 05:01:16;;;;;;;5.68;2.58;;;;;;;3.39;67.93;99834.91;10433391;28;20061;-63
2023/11/26 05:06:19;;;;;;;4.90;2.65;;;;;;;3.31;68.11;99829.16;10417177;28;20524;-62
2023/11/26 05:11:21;;;;;;;5.13;2.85;;;;;;;3.34;68.20;99859.19;10431539;28;20060;-63
2023/11/26 05:16:23;;;;;;;6.70;3.20;;;;;;;2.98;69.26;99872.38;10432491;28;20564;-63
2023/11/26 05:21:25;;;;;;;6.22;3.55;;;;;;;2.88;69.27;99868.38;10431299;28;20049;-62
2023/11/26 05:26:27;;;;;;;4.57;2.70;;;;;;;3.13;68.96;99870.22;10411295;28;20055;-62
2023/11/26 05:31:29;;;;;;;5.38;3.22;;;;;;;3.36;68.65;99868.59;10430570;28;20131;-63
2023/11/26 05:36:32;;;;;;;5.85;2.70;;;;;;;3.54;68.19;99867.16;10431913;28;20056;-62
2023/11/26 05:41:34;;;;;;;5.38;2.50;;;;;;;3.68;68.05;99867.59;10431231;28;20047;-63
2023/11/26 05:46:36;;;;;;;6.07;2.55;;;;;;;3.80;67.72;99877.53;10433004;28;20624;-62
2023/11/26 05:51:38;;;;;;;5.47;2.97;;;;;;;3.90;67.52;99881.53;10432196;28;20049;-63
2023/11/26 05:56:44;;;;;;;5.00;3.17;;;;;;;3.92;67.39;99891.81;10433665;28;20053;-63
2023/11/26 06:01:46;;;;;;;9.13;3.05;;;;;;;3.95;67.38;99891.69;10433655;28;20063;-62
2023/11/26 06:06:48;;;;;;;7.70;2.58;;;;;;;3.93;67.24;99890.91;10433162;28;20059;-62
2023/11/26 06:11:50;;;;;;;5.00;2.95;;;;;;;3.94;67.51;99900.38;10433120;28;20132;-62
2023/11/26 06:16:52;;;;;;;4.25;2.50;;;;;;;4.00;67.35;99901.00;10414761;28;20061;-62
2023/11/26 06:21:54;;;;;;;4.72;2.75;;;;;;;4.01;67.29;99896.66;10432347;28;20048;-63
2023/11/26 06:26:56;;;;;;;6.30;3.25;;;;;;;4.00;67.17;99893.25;10431150;28;20049;-62
2023/11/26 06:31:58;;;;;;;5.28;3.08;;;;;;;3.98;67.35;99902.81;10432609;28;20182;-63
2023/11/26 06:37:00;;;;;;;5.85;2.63;;;;;;;3.94;67.24;99898.63;10421819;28;20049;-62
2023/11/26 06:42:04;;;;;;;8.68;2.38;;;;;;;3.92;67.32;99900.44;10440373;28;20040;-62
2023/11/26 06:47:06;;;;;;;5.95;3.00;;;;;;;3.85;67.34;99906.69;10438539;28;20150;-62
2023/11/26 06:52:08;;;;;;;4.50;2.55;;;;;;;3.81;67.37;99912.81;10438449;28;20099;-63
2023/11/26 06:57:10;;;;;;;4.57;2.45;;;;;;;3.79;67.34;99901.69;10420644;28;20055;-62
2023/11/26 07:02:14;;;;;;;5.65;2.58;;;;;;;3.81;67.51;99895.56;10438191;28;20382;-62
2023/11/26 07:07:20;;;;;;;7.53;2.80;;;;;;;3.88;67.52;99894.50;10416286;28;20044;-62
2023/11/26 07:12:22;;;;;;;6.93;2.90;;;;;;;3.98;67.29;99895.06;10438000;28;21147;-63
2023/11/26 07:17:26;;;;;;;4.93;2.80;;;;;;;4.02;67.17;99903.53;10438807;28;20053;-62
2023/11/26 07:22:28;;;;;;;5.88;2.70;;;;;;;4.03;67.24;99906.06;10438068;28;20135;-62
2023/11/26 07:27:31;;;;;;;4.85;2.95;;;;;;;4.00;67.46;99911.38;10436736;28;20045;-63
2023/11/26 07:32:33;;;;;;;8.80;2.60;;;;;;;3.85;68.15;99906.69;10439372;28;20052;-62
2023/11/26 07:37:35;;;;;;;4.82;2.65;;;;;;;3.99;68.01;99908.81;10439217;28;20084;-63
2023/11/26 07:42:39;;;;;;;7.45;2.58;;;;;;;4.06;67.95;99903.41;10447629;28;20052;-63
2023/11/26 07:47:41;;;;;;;7.38;3.08;;;;;;;4.20;67.91;99896.00;10418468;28;20041;-63
2023/11/26 07:52:43;;;;;;;3.30;2.00;;;;;;;4.27;67.87;99897.47;10434823;28;20458;-63
2023/11/26 07:57:45;;;;;;;3.88;1.98;;;;;;;4.40;67.69;99903.06;10435605;28;20049;-63
2023/11/26 08:02:47;;;;;;;4.10;1.92;;;;;;;4.47;67.48;99900.22;10437606;28;20049;-62
2023/11/26 08:07:51;;;;;;;2.53;1.60;;;;;;;4.54;67.44;99893.06;10436236;28;20114;-62
2023/11/26 08:12:53;;;;;;;3.97;1.90;;;;;;;4.75;67.09;99887.13;10436770;28;20566;-62
2023/11/26 08:17:56;;;;;;;4.70;2.35;;;;;;;4.82;66.56;99890.34;10436509;28;20424;-63
2023/11/26 08:23:02;;;;;;;1.92;1.33;;;;;;;4.87;66.40;99901.34;10436724;28;20048;-62
2023/11/26 08:28:06;;;;;;;2.92;1.60;;;;;;;5.01;66.49;99894.75;10434687;28;20045;-63
2023/11/26 08:33:12;;;;;;;4.75;2.17;;;;;;;4.97;66.12;99897.53;10416772;28;20037;-62
2023/11/26 08:38:14;;;;;;;3.75;1.50;;;;;;;4.78;66.56;99906.91;10435286;28;20064;-62
2023/11/26 08:43:19;;;;;;;6.57;1.60;;;;;;;4.79;66.53;99911.16;10433822;28;20693;-62
2023/11/26 08:48:21;;;;;;;2.03;1.30;;;;;;;4.79;66.44;99914.59;10433113;28;20076;-62
2023/11/26 08:53:23;;;;;;;3.35;1.55;;;;;;;4.61;66.88;99921.31;10432809;28;20044;-62
2023/11/26 08:58:25;;;;;;;3.35;1.50;;;;;;;4.67;66.69;99915.91;10432146;28;20045;-62
2023/11/26 09:03:27;;;;;;;3.15;1.88;;;;;;;4.75;66.48;99912.16;10430196;28;20059;-62
2023/11/26 09:08:30;;;;;;;2.17;1.50;;;;;;;4.78;66.60;99912.06;10432917;28;20064;-62
2023/11/26 09:13:32;;;;;;;3.08;1.50;;;;;;;4.89;66.45;99913.38;10433200;28;20049;-62
2023/11/26 09:18:37;;;;;;;3.17;1.65;;;;;;;4.97;66.24;99923.44;10433543;28;20057;-62
2023/11/26 09:23:45;;;;;;;3.30;1.70;;;;;;;5.26;65.68;99912.81;10428150;28;20075;-63
2023/11/26 09:28:47;;;;;;;2.08;1.20;;;;;;;5.53;65.59;99916.94;10430952;28;20037;-63
2023/11/26 09:34:00;;;;;;;3.70;1.33;;;;;;;5.61;65.15;99917.50;10429234;28;20048;-62
2023/11/26 09:39:02;;;;;;;2.85;1.50;;;;;;;5.60;65.00;99923.56;10431775;28;20136;-62
2023/11/26 09:44:07;;;;;;;2.42;1.10;;;;;;;5.55;65.05;99913.38;10431503;28;20504;-62
2023/11/26 09:49:09;;;;;;;2.75;1.65;;;;;;;5.70;64.91;99909.31;10431975;28;20536;-62
2023/11/26 09:54:13;;;;;;;5.10;1.70;;;;;;;5.81;64.74;99904.56;10414325;28;20041;-63
2023/11/26 09:59:27;;;;;;;6.00;1.90;;;;;;;5.74;64.29;99903.09;10433281;28;20497;-62
2023/11/26 10:04:49;;;;;;;4.15;1.90;;;;;;;5.72;64.63;99902.31;10432402;28;20055;-62
2023/11/26 10:10:12;;;;;;;1.73;1.05;;;;;;;5.60;64.81;99904.56;10433074;28;20052;-63
2023/11/26 10:15:15;;;;;;;5.40;1.80;;;;;;;5.74;64.79;99884.13;10414861;28;20045;-62
2023/11/26 10:20:18;;;;;;;5.25;1.80;;;;;;;5.79;64.88;99885.59;10431794;28;20073;-63
2023/11/26 10:25:21;;;;;;;2.20;1.35;;;;;;;5.71;64.74;99892.00;10430232;28;20111;-62
2023/11/26 10:30:32;;;;;;;4.93;1.83;;;;;;;5.77;64.80;99890.03;10429364;28;20084;-63
2023/11/26 10:35:50;;;;;;;2.88;1.92;;;;;;;5.89;63.94;99881.72;10430124;28;20114;-66
2023/11/26 10:40:59;;;;;;;7.50;1.90;;;;;;;5.91;64.50;99874.72;10430269;28;20037;-66
2023/11/26 10:46:01;;;;;;;3.17;1.85;;;;;;;6.24;63.96;99867.25;10418777;28;20041;-66
2023/11/26 10:51:18;;;;;;;3.60;1.20;;;;;;;6.11;63.51;99869.53;10426579;28;20052;-66
2023/11/26 10:56:39;;;;;;;3.50;2.00;;;;;;;6.08;63.84;99869.66;10419612;28;20045;-66
2023/11/26 11:01:43;;;;;;;5.05;2.05;;;;;;;6.19;64.20;99867.44;10429505;28;20048;-66
2023/11/26 11:06:45;;;;;;;4.10;1.88;;;;;;;6.11;64.31;99869.53;10390970;28;20060;-66
2023/11/26 11:11:59;;;;;;;3.13;1.88;;;;;;;6.32;64.04;99863.47;10439020;28;20060;-66
2023/11/26 11:17:01;;;;;;;7.45;2.17;;;;;;;6.20;64.23;99856.16;10431929;28;20150;-66
2023/11/26 11:22:03;;;;;;;7.03;2.20;;;;;;;6.14;64.46;99855.59;10417057;28;20049;-66
2023/11/26 11:27:05;;;;;;;4.07;1.35;;;;;;;6.46;64.23;99846.41;10432137;28;20041;-66
2023/11/26 11:32:09;;;;;;;5.47;1.80;;;;;;;6.33;63.98;99848.69;10432827;28;20044;-65
2023/11/26 11:37:11;;;;;;;2.70;1.70;;;;;;;6.24;64.30;99842.13;10431254;28;20184;-66
2023/11/26 11:42:15;;;;;;;5.07;1.95;;;;;;;6.29;64.26;99841.94;10432119;28;20120;-66
2023/11/26 11:47:41;;;;;;;3.75;1.65;;;;;;;6.13;63.94;99841.75;10433091;28;20064;-66
2023/11/26 11:52:53;;;;;;;4.85;2.05;;;;;;;6.17;64.11;99838.09;10449921;28;20068;-66
2023/11/26 11:57:55;;;;;;;;;;;;;;;6.26;64.52;99829.97;10434981;28;20047;-66
2023/11/26 12:02:57;;;;;;;2.80;1.40;;;;;;;6.50;63.98;99828.03;10435623;28;19930;-66
2023/11/26 12:07:59;;;;;;;5.25;2.40;;;;;;;6.61;64.14;99831.00;10398994;28;20052;-66
2023/11/26 12:13:06;;;;;;;3.85;2.05;;;;;;;6.46;63.43;99828.22;10430351;28;20514;-66
2023/11/26 12:18:09;;;;;;;5.65;2.20;;;;;;;6.44;64.09;99828.31;10433088;28;20044;-66
2023/11/26 12:23:11;;;;;;;3.22;2.20;;;;;;;6.51;63.79;99819.31;10428450;28;20222;-66
2023/11/26 12:28:13;;;;;;;2.78;1.65;;;;;;;6.51;63.87;99813.28;10419161;28;20060;-66
2023/11/26 12:33:15;;;;;;;3.22;1.80;;;;;;;6.40;64.33;99807.72;10403735;28;20041;-66
2023/11/26 12:38:25;;;;;;;3.67;1.88;;;;;;;6.60;64.15;99802.47;10420288;28;20041;-66
2023/11/26 12:43:28;;;;;;;3.75;1.67;;;;;;;6.62;64.30;99805.84;10418953;28;20075;-66
2023/11/26 12:48:33;;;;;;;4.93;1.98;;;;;;;6.55;64.32;99794.88;10428512;28;20048;-66
2023/11/26 12:53:35;;;;;;;6.05;1.90;;;;;;;6.77;64.13;99806.00;10432859;28;20566;-66
2023/11/26 12:58:38;;;;;;;7.15;2.17;;;;;;;7.12;63.87;99799.16;10414626;28;20056;-66
2023/11/26 13:03:49;;;;;;;5.93;1.90;;;;;;;6.95;63.76;99788.69;10434526;28;20037;-66
2023/11/26 13:09:01;;;;;;;4.50;1.67;;;;;;;7.03;63.05;99777.00;10432740;28;20127;-66
2023/11/26 13:14:05;;;;;;;4.63;2.60;;;;;;;6.95;63.79;99773.09;10431862;28;20532;-66
2023/11/26 13:19:07;;;;;;;3.33;2.08;;;;;;;7.00;62.91;99776.28;10432138;28;20057;-66
2023/11/26 13:24:09;;;;;;;3.90;1.80;;;;;;;7.02;63.54;99784.91;10424236;28;20084;-66
2023/11/26 13:29:12;;;;;;;7.18;3.20;;;;;;;7.02;63.31;99777.09;10426195;28;20125;-66
2023/11/26 13:34:14;;;;;;;5.75;3.15;;;;;;;7.06;63.47;99760.44;10429960;28;20032;-66
2023/11/26 13:39:20;;;;;;;4.22;2.05;;;;;;;7.00;62.75;99760.69;10428697;28;20420;-66
2023/11/26 13:44:24;;;;;;;7.30;1.92;;;;;;;6.85;63.50;99756.25;10392992;28;20077;-66
2023/11/26 13:49:26;;;;;;;5.28;1.85;;;;;;;6.73;63.91;99751.63;10409297;28;20603;-66
2023/11/26 13:54:28;;;;;;;4.18;2.22;;;;;;;6.90;63.67;99759.44;10409404;28;20049;-65
2023/11/26 13:59:31;;;;;;;7.20;3.25;;;;;;;7.04;63.40;99763.09;10425785;28;20044;-66
2023/11/26 14:04:34;;;;;;;4.55;1.80;;;;;;;7.08;63.35;99745.59;10428135;28;20573;-66
2023/11/26 14:09:36;;;;;;;4.50;1.42;;;;;;;7.13;63.23;99757.44;10423220;28;20191;-66
2023/11/26 14:14:38;;;;;;;3.45;1.80;;;;;;;7.13;63.18;99751.41;10425574;28;20159;-66
2023/11/26 14:19:41;;;;;;;3.75;1.90;;;;;;;6.94;63.48;99751.44;10418273;28;20187;-66
2023/11/26 14:24:43;;;;;;;6.47;1.80;;;;;;;6.84;63.64;99746.75;10389494;28;20045;-65
2023/11/26 14:29:49;;;;;;;3.88;2.03;;;;;;;6.71;63.91;99753.44;10424977;28;20040;-66
2023/11/26 14:34:51;;;;;;;2.95;1.73;;;;;;;6.83;63.69;99745.94;10424420;28;20664;-66
2023/11/26 14:39:53;;;;;;;4.13;1.60;;;;;;;6.62;64.03;99748.66;10426512;28;20048;-66
2023/11/26 14:44:57;;;;;;;3.33;1.63;;;;;;;6.54;64.22;99750.78;10411659;28;20489;-65
2023/11/26 14:50:04;;;;;;;4.30;2.05;;;;;;;6.32;64.80;99733.59;10429617;28;20049;-65
2023/11/26 14:55:12;;;;;;;3.47;1.77;;;;;;;6.28;64.95;99745.03;10438615;28;20059;-65
2023/11/26 15:00:15;;;;;;;3.08;1.75;;;;;;;6.36;64.74;99742.09;10452085;28;20052;-66
2023/11/26 15:05:18;;;;;;;3.85;1.60;;;;;;;6.24;64.97;99746.06;10436625;28;20048;-65
2023/11/26 15:10:20;;;;;;;4.15;2.45;;;;;;;6.25;65.05;99744.31;10438355;28;20067;-66
2023/11/26 15:15:22;;;;;;;3.85;2.10;;;;;;;6.20;65.33;99744.50;10402095;28;20041;-66
2023/11/26 15:20:24;;;;;;;2.28;1.38;;;;;;;6.15;65.50;99746.44;10438257;28;20048;-65
2023/11/26 15:25:26;;;;;;;3.05;1.70;;;;;;;6.11;65.64;99747.50;10438447;28;20049;-65
2023/11/26 15:30:29;;;;;;;4.32;2.00;;;;;;;6.08;65.87;99746.81;10438065;28;20167;-65
2023/11/26 15:35:32;;;;;;;4.72;1.70;;;;;;;6.05;65.66;99742.59;10437395;28;20131;-66
2023/11/26 15:40:34;;;;;;;2.15;1.30;;;;;;;6.13;65.45;99740.50;10438248;28;20060;-65
2023/11/26 15:45:36;;;;;;;3.13;1.50;;;;;;;6.19;65.23;99735.03;10436879;28;20048;-65
2023/11/26 15:50:38;;;;;;;2.42;1.50;;;;;;;6.25;65.27;99739.13;10434959;28;20483;-65
2023/11/26 15:55:40;;;;;;;3.72;2.35;;;;;;;6.16;65.55;99742.13;10436490;28;20095;-65
2023/11/26 16:00:44;;;;;;;5.13;1.63;;;;;;;6.14;65.63;99744.75;10419389;28;20052;-64
2023/11/26 16:05:46;;;;;;;4.55;1.55;;;;;;;6.17;65.60;99736.84;10435138;28;20501;-65
2023/11/26 16:10:48;;;;;;;2.33;1.52;;;;;;;6.25;65.44;99734.78;10430002;28;20045;-64
2023/11/26 16:15:50;;;;;;;1.88;1.23;;;;;;;6.20;65.47;99728.94;10433270;28;20048;-64
2023/11/26 16:20:52;;;;;;;2.38;1.38;;;;;;;6.10;66.11;99725.03;10448200;28;20110;-65
2023/11/26 16:25:54;;;;;;;2.25;1.33;;;;;;;6.09;66.36;99723.38;10431469;28;20055;-64
2023/11/26 16:30:56;;;;;;;3.65;1.40;;;;;;;6.16;66.37;99724.78;10434052;28;20760;-65
2023/11/26 16:35:59;;;;;;;2.70;1.50;;;;;;;6.17;66.30;99718.66;10412657;28;20053;-65
2023/11/26 16:41:02;;;;;;;2.85;1.75;;;;;;;6.19;66.42;99721.19;10418249;28;20112;-65
2023/11/26 16:46:08;;;;;;;2.58;1.60;;;;;;;6.22;66.33;99724.50;10431938;28;20132;-64
2023/11/26 16:51:10;;;;;;;6.22;1.52;;;;;;;6.20;66.57;99723.75;10427860;28;20381;-65
2023/11/26 16:56:13;;;;;;;5.78;1.90;;;;;;;6.09;66.64;99730.31;10430846;28;20051;-65
2023/11/26 17:01:15;;;;;;;3.67;1.67;;;;;;;5.97;67.06;99723.91;10429901;28;20179;-65
2023/11/26 17:06:17;;;;;;;3.20;1.80;;;;;;;5.92;67.10;99725.03;10427938;28;20141;-64
2023/11/26 17:11:19;;;;;;;2.67;1.70;;;;;;;5.85;67.37;99729.66;10412913;28;20049;-64
2023/11/26 17:16:21;;;;;;;3.10;1.85;;;;;;;5.81;67.43;99725.50;10427877;28;20056;-64
2023/11/26 17:21:23;;;;;;;4.97;1.80;;;;;;;5.78;67.43;99722.19;10432991;28;20055;-64
2023/11/26 17:26:27;;;;;;;3.55;1.70;;;;;;;5.69;67.74;99728.63;10429120;28;20053;-64
2023/11/26 17:31:30;;;;;;;3.55;1.52;;;;;;;5.63;67.89;99718.50;10410272;28;20215;-64
2023/11/26 17:36:33;;;;;;;3.88;1.50;;;;;;;5.59;68.04;99729.94;10430084;28;20047;-64
2023/11/26 17:41:36;;;;;;;2.22;1.27;;;;;;;5.58;68.11;99725.63;10432323;28;20404;-64
2023/11/26 17:46:40;;;;;;;6.90;1.60;;;;;;;5.55;68.19;99720.59;10429086;28;20045;-64
2023/11/26 17:51:42;;;;;;;3.72;1.20;;;;;;;5.49;68.23;99728.63;10414228;28;20044;-65
2023/11/26 17:56:45;;;;;;;1.90;1.15;;;;;;;5.53;68.24;99719.81;10424034;28;20079;-65
2023/11/26 18:01:49;;;;;;;1.88;1.00;;;;;;;5.52;67.92;99721.56;10421318;28;20051;-64
2023/11/26 18:06:51;;;;;;;1.15;1.00;;;;;;;5.61;67.80;99722.91;10396494;28;20074;-65
2023/11/26 18:11:53;;;;;;;1.27;1.10;;;;;;;5.66;67.81;99718.38;10431125;28;20883;-65
2023/11/26 18:16:55;;;;;;;1.65;1.10;;;;;;;5.68;67.62;99721.72;10420302;28;20049;-65
2023/11/26 18:21:57;;;;;;;4.32;1.80;;;;;;;5.52;67.87;99720.72;10422317;28;20622;-64
2023/11/26 18:27:00;;;;;;;2.30;1.30;;;;;;;5.47;67.88;99727.84;10431678;28;20386;-65
2023/11/26 18:32:03;;;;;;;1.77;1.23;;;;;;;5.41;68.02;99722.94;10434742;28;20055;-65
2023/11/26 18:37:05;;;;;;;2.72;1.15;;;;;;;5.43;68.09;99718.53;10436480;28;20632;-65
2023/11/26 18:42:07;;;;;;;2.45;1.30;;;;;;;5.42;67.90;99720.25;10419055;28;20041;-64
2023/11/26 18:47:10;;;;;;;1.75;1.20;;;;;;;5.44;67.90;99727.97;10415437;28;20056;-64
2023/11/26 18:52:15;;;;;;;3.33;1.80;;;;;;;5.32;68.24;99723.31;10433241;28;20352;-65
2023/11/26 18:57:19;;;;;;;9.70;1.40;;;;;;;5.46;67.78;99716.63;10436834;28;20075;-66
2023/11/26 19:02:21;;;;;;;2.58;1.30;;;;;;;5.52;67.74;99715.53;10434554;28;20045;-65
2023/11/26 19:07:23;;;;;;;2.97;1.65;;;;;;;5.42;67.85;99709.88;10432231;28;20041;-64
2023/11/26 19:12:25;;;;;;;3.13;1.45;;;;;;;5.45;67.77;99720.13;10452506;28;20041;-64
2023/11/26 19:17:27;;;;;;;3.47;1.67;;;;;;;5.45;67.70;99719.28;10436301;28;20057;-64
2023/11/26 19:22:30;;;;;;;3.58;1.88;;;;;;;5.41;67.99;99717.75;10453912;28;20051;-64
2023/11/26 19:27:33;;;;;;;4.28;1.65;;;;;;;5.52;67.93;99715.53;10436660;28;20076;-65
2023/11/26 19:32:36;;;;;;;3.20;1.90;;;;;;;5.63;67.65;99713.31;10437050;28;20059;-64
2023/11/26 19:37:38;;;;;;;7.35;3.17;;;;;;;5.53;67.51;99718.03;10429561;28;20051;-64
2023/11/26 19:42:40;;;;;;;4.15;1.88;;;;;;;5.51;67.73;99708.66;10436899;28;20053;-64
2023/11/26 19:47:42;;;;;;;8.07;2.47;;;;;;;5.56;67.41;99714.47;10422204;28;20477;-65
2023/11/26 19:52:44;;;;;;;2.50;1.65;;;;;;;5.35;67.67;99713.63;10414264;28;20037;-64
2023/11/26 19:57:47;;;;;;;3.35;1.88;;;;;;;5.36;67.62;99714.47;10436143;28;21198;-65
2023/11/26 20:02:49;;;;;;;6.88;2.47;;;;;;;5.36;67.38;99701.53;10435441;28;20498;-66
2023/11/26 20:07:54;;;;;;;4.70;2.78;;;;;;;5.34;67.33;99705.94;10433241;28;20481;-65
2023/11/26 20:12:57;;;;;;;5.20;1.98;;;;;;;5.21;67.45;99691.78;10436477;28;20057;-66
2023/11/26 20:17:59;;;;;;;5.53;2.72;;;;;;;5.32;67.19;99700.81;10417306;28;20053;-65
2023/11/26 20:23:01;;;;;;;5.57;1.90;;;;;;;5.22;67.25;99694.34;10435499;28;20095;-66
2023/11/26 20:28:04;;;;;;;3.47;2.17;;;;;;;5.16;67.43;99692.00;10436351;28;20129;-65
2023/11/26 20:33:06;;;;;;;3.33;2.00;;;;;;;5.08;67.59;99695.81;10434981;28;20465;-65
2023/11/26 20:38:08;;;;;;;5.15;2.10;;;;;;;5.13;67.71;99701.63;10434572;28;20049;-65
2023/11/26 20:43:10;;;;;;;4.13;2.28;;;;;;;5.27;67.46;99694.97;10432605;28;20045;-65
2023/11/26 20:48:12;;;;;;;4.05;2.00;;;;;;;5.24;67.18;99678.69;10435010;28;20037;-66
2023/11/26 20:53:14;;;;;;;4.28;2.38;;;;;;;5.31;66.77;99680.16;10432876;28;20103;-66
2023/11/26 20:58:18;;;;;;;4.40;2.22;;;;;;;5.40;66.99;99683.19;10435087;28;20061;-65
2023/11/26 21:03:21;;;;;;;3.42;1.95;;;;;;;5.28;66.78;99675.06;10433160;28;20427;-65
2023/11/26 21:08:23;;;;;;;7.35;2.45;;;;;;;5.10;67.02;99663.72;10434521;28;20172;-65
2023/11/26 21:13:25;;;;;;;6.80;2.28;;;;;;;4.99;66.97;99658.13;10415747;28;20071;-66
2023/11/26 21:18:27;;;;;;;7.05;2.05;;;;;;;4.95;66.92;99663.50;10433457;28;20148;-66
2023/11/26 21:23:29;;;;;;;5.97;1.90;;;;;;;4.94;66.81;99643.69;10398135;28;20077;-66
2023/11/26 21:28:31;;;;;;;6.65;2.35;;;;;;;4.95;66.92;99648.81;10433409;28;20055;-65
2023/11/26 21:33:33;;;;;;;4.82;2.13;;;;;;;4.91;66.95;99649.84;10432748;28;20053;-66
2023/11/26 21:38:35;;;;;;;6.40;2.15;;;;;;;4.99;66.40;99639.16;10415077;28;20049;-66
2023/11/26 21:43:38;;;;;;;4.32;2.08;;;;;;;4.80;66.59;99640.84;10397094;28;20421;-66
2023/11/26 21:48:43;;;;;;;4.82;2.03;;;;;;;4.85;66.63;99623.34;10432894;28;20130;-66
2023/11/26 21:53:45;;;;;;;3.17;1.98;;;;;;;4.94;66.42;99617.78;10429927;28;20412;-66
2023/11/26 21:58:47;;;;;;;2.92;1.48;;;;;;;4.94;65.84;99612.59;10430832;28;20057;-65
2023/11/26 22:03:49;;;;;;;4.65;1.85;;;;;;;4.93;65.93;99609.16;10431431;28;20056;-66
2023/11/26 22:08:54;;;;;;;4.15;1.92;;;;;;;4.87;65.98;99617.19;10431280;28;20041;-66
2023/11/26 22:13:58;;;;;;;5.93;1.73;;;;;;;4.91;65.53;99607.53;10431080;28;20076;-66
2023/11/26 22:19:00;;;;;;;3.92;1.90;;;;;;;4.91;65.80;99602.34;10401840;28;20383;-66
2023/11/26 22:24:07;;;;;;;5.38;2.00;;;;;;;4.83;65.48;99584.53;10432098;28;20193;-67
2023/11/26 22:29:10;;;;;;;2.53;1.70;;;;;;;4.69;65.44;99603.25;10430870;28;20554;-66
2023/11/26 22:34:14;;;;;;;4.63;1.65;;;;;;;4.66;65.40;99598.19;10432940;28;20489;-67
2023/11/26 22:39:16;;;;;;;2.45;1.67;;;;;;;4.58;65.32;99589.03;10414103;28;20052;-66
2023/11/26 22:44:18;;;;;;;8.40;2.03;;;;;;;4.71;65.42;99585.06;10415360;28;20059;-66
2023/11/26 22:49:20;;;;;;;1.67;1.30;;;;;;;4.76;65.21;99582.28;10432018;28;20049;-66
2023/11/26 22:54:22;;;;;;;3.15;1.70;;;;;;;4.75;65.20;99583.16;10431879;28;20114;-66
2023/11/26 22:59:24;;;;;;;3.00;1.70;;;;;;;4.78;65.01;99580.47;10414590;28;20053;-66
2023/11/26 23:04:26;;;;;;;4.53;1.92;;;;;;;4.74;64.96;99564.19;10432952;28;20041;-66
2023/11/26 23:09:28;;;;;;;5.88;1.88;;;;;;;4.75;65.17;99563.31;10432457;28;20052;-65
2023/11/26 23:14:30;;;;;;;3.70;1.85;;;;;;;4.76;65.05;99561.56;10439154;28;20132;-66
2023/11/26 23:19:32;;;;;;;2.20;1.40;;;;;;;4.70;64.96;99563.50;10439692;28;20063;-66
2023/11/26 23:24:34;;;;;;;3.22;1.75;;;;;;;4.72;64.94;99550.47;10439680;28;20098;-66
2023/11/26 23:29:36;;;;;;;4.90;1.63;;;;;;;4.78;65.00;99552.78;10439231;28;20115;-66
2023/11/26 23:34:38;;;;;;;4.25;2.20;;;;;;;4.87;64.93;99548.97;10440071;28;20053;-66
2023/11/26 23:39:40;;;;;;;3.80;1.75;;;;;;;4.95;64.94;99526.16;10439767;28;20072;-66
2023/11/26 23:44:42;;;;;;;3.50;2.05;;;;;;;5.11;64.53;99517.66;10421744;28;20190;-66
2023/11/26 23:49:44;;;;;;;3.30;1.80;;;;;;;5.05;64.20;99511.91;10438732;28;20060;-66
2023/11/26 23:54:46;;;;;;;2.65;1.58;;;;;;;4.93;64.36;99502.06;10435739;28;20412;-66